Wetterstation Vordersexau
Wetterdaten: Woche 11.12.23 - 17.12.23 (KW50)
Datum Zeit Temp. A. Feuchte A. Luftdruck Regen Wind Richtung Taupunkt Windchill Windben
11.12.2023 00:00 11,1 C 83 % 1003,3 hPa 0,0 l/m 14,8 km/h (3 Bft) S-SW 8,2 C 6,6 C 20,9 km/h (4 Bft)
11.12.2023 01:00 11,3 C 89 % 1003,7 hPa 0,0 l/m 14,3 km/h (3 Bft) W-SW 9,5 C 7,1 C 24,5 km/h (4 Bft)
11.12.2023 02:00 11,6 C 91 % 1004,1 hPa 0,0 l/m 9,2 km/h (2 Bft) W-SW 10,1 C 9,9 C 13,0 km/h (3 Bft)
11.12.2023 03:00 11,9 C 89 % 1004,4 hPa 0,0 l/m 10,4 km/h (2 Bft) W-SW 10,1 C 9,5 C 15,3 km/h (3 Bft)
11.12.2023 04:00 11,9 C 89 % 1004,0 hPa 0,0 l/m 7,9 km/h (2 Bft) SW 10,1 C 10,9 C 16,0 km/h (3 Bft)
11.12.2023 05:00 11,9 C 89 % 1003,9 hPa 0,0 l/m 6,6 km/h (2 Bft) SW 10,1 C 10,9 C 10,4 km/h (2 Bft)
11.12.2023 06:00 12,1 C 89 % 1003,8 hPa 0,0 l/m 6,1 km/h (2 Bft) S-SW 10,3 C 11,8 C 9,2 km/h (2 Bft)
11.12.2023 07:00 12,3 C 88 % 1003,5 hPa 0,0 l/m 6,8 km/h (2 Bft) S-SW 10,4 C 11,6 C 9,2 km/h (2 Bft)
11.12.2023 08:00 12,4 C 88 % 1003,2 hPa 0,0 l/m 6,1 km/h (2 Bft) W-SW 10,4 C 12,1 C 8,4 km/h (2 Bft)
11.12.2023 09:00 12,0 C 90 % 1003,2 hPa 0,3 l/m 8,6 km/h (2 Bft) S-SW 10,3 C 10,6 C 15,3 km/h (3 Bft)
11.12.2023 10:00 11,9 C 86 % 1003,1 hPa 0,0 l/m 4,8 km/h (1 Bft) SW 9,5 C 11,9 C 7,9 km/h (2 Bft)
11.12.2023 11:00 10,2 C 89 % 1005,1 hPa 0,0 l/m 2,5 km/h (1 Bft) SW 8,4 C 10,2 C 5,3 km/h (1 Bft)
11.12.2023 12:00 11,6 C 87 % 1003,2 hPa 0,3 l/m 7,3 km/h (2 Bft) SW 9,6 C 10,6 C 13,5 km/h (3 Bft)
11.12.2023 13:00 11,8 C 86 % 1003,2 hPa 0,0 l/m 9,1 km/h (2 Bft) W 9,5 C 10,1 C 11,2 km/h (2 Bft)
11.12.2023 14:00 12,0 C 84 % 1003,5 hPa 0,0 l/m 8,4 km/h (2 Bft) S-SW 9,3 C 10,7 C 13,0 km/h (3 Bft)
11.12.2023 15:00 11,8 C 84 % 1003,9 hPa 0,0 l/m 6,6 km/h (2 Bft) SW 9,1 C 11,5 C 10,4 km/h (2 Bft)
11.12.2023 16:00 11,4 C 83 % 1004,1 hPa 0,0 l/m 11,7 km/h (2 Bft) W-SW 8,5 C 8,4 C 16,6 km/h (3 Bft)
11.12.2023 17:00 11,0 C 85 % 1004,5 hPa 0,0 l/m 6,1 km/h (2 Bft) SW 8,5 C 11,0 C 9,7 km/h (2 Bft)
11.12.2023 18:00 10,8 C 85 % 1004,1 hPa 0,0 l/m 7,4 km/h (2 Bft) S-SW 8,3 C 10,1 C 10,4 km/h (2 Bft)
11.12.2023 19:00 10,8 C 85 % 1004,7 hPa 0,0 l/m 4,8 km/h (1 Bft) W 8,4 C 10,5 C 6,6 km/h (2 Bft)
11.12.2023 20:00 11,0 C 85 % 1005,3 hPa 0,0 l/m 4,8 km/h (1 Bft) SW 8,6 C 10,8 C 8,6 km/h (2 Bft)
11.12.2023 21:00 10,1 C 87 % 1005,5 hPa 0,0 l/m 3,0 km/h (1 Bft) N-NW 8,0 C 10,1 C 6,6 km/h (2 Bft)
11.12.2023 22:00 8,5 C 93 % 1005,7 hPa 0,0 l/m 3,0 km/h (1 Bft) NO 7,4 C 8,5 C 4,8 km/h (1 Bft)
11.12.2023 23:00 7,6 C 94 % 1005,5 hPa 0,0 l/m 1,1 km/h (1 Bft) NO 6,7 C 7,6 C 3,0 km/h (1 Bft)
12.12.2023 00:00 7,1 C 96 % 1005,5 hPa 0,0 l/m 3,0 km/h (1 Bft) NO 6,5 C 7,1 C 3,6 km/h (1 Bft)
12.12.2023 01:00 6,4 C 97 % 1005,7 hPa 0,0 l/m 0,6 km/h (0 Bft) N 6,0 C 6,4 C 1,8 km/h (1 Bft)
12.12.2023 02:00 6,4 C 97 % 1005,7 hPa 0,0 l/m 0,6 km/h (0 Bft) O-NO 6,0 C 6,4 C 2,5 km/h (1 Bft)
12.12.2023 03:00 6,7 C 97 % 1005,5 hPa 0,0 l/m 0,6 km/h (0 Bft) O-SO 6,3 C 6,7 C 1,3 km/h (1 Bft)
12.12.2023 04:00 7,1 C 96 % 1005,1 hPa 0,0 l/m 1,1 km/h (1 Bft) SO 6,6 C 7,1 C 3,0 km/h (1 Bft)
12.12.2023 05:00 7,5 C 96 % 1004,8 hPa 0,0 l/m 0,6 km/h (0 Bft) N 6,9 C 7,5 C 1,3 km/h (1 Bft)
12.12.2023 06:00 7,9 C 96 % 1004,3 hPa 0,0 l/m 1,3 km/h (1 Bft) SO 7,4 C 7,9 C 3,0 km/h (1 Bft)
12.12.2023 07:00 8,8 C 95 % 1003,8 hPa 0,0 l/m 1,3 km/h (1 Bft) O-NO 8,0 C 8,8 C 1,8 km/h (1 Bft)
12.12.2023 08:00 10,3 C 94 % 1003,7 hPa 0,0 l/m 1,3 km/h (1 Bft) SO 9,3 C 10,3 C 3,0 km/h (1 Bft)
12.12.2023 09:00 10,4 C 96 % 1002,8 hPa 2,1 l/m 1,3 km/h (1 Bft) N 9,7 C 10,4 C 3,0 km/h (1 Bft)
12.12.2023 10:00 10,7 C 99 % 1002,7 hPa 4,2 l/m 0,0 km/h (0 Bft) S-SW 10,5 C 10,7 C 1,3 km/h (1 Bft)
12.12.2023 11:00 11,9 C 97 % 1001,4 hPa 0,9 l/m 4,3 km/h (1 Bft) S-SW 11,4 C 11,9 C 6,6 km/h (2 Bft)
12.12.2023 12:00 12,8 C 92 % 1000,2 hPa 0,9 l/m 6,6 km/h (2 Bft) SW 11,5 C 11,8 C 11,7 km/h (2 Bft)
12.12.2023 13:00 13,9 C 86 % 999,3 hPa 0,0 l/m 11,7 km/h (2 Bft) S-SW 11,5 C 11,1 C 19,6 km/h (3 Bft)
12.12.2023 14:00 13,2 C 91 % 998,6 hPa 1,8 l/m 11,5 km/h (2 Bft) W 11,7 C 10,4 C 18,5 km/h (3 Bft)
12.12.2023 15:00 12,1 C 97 % 997,8 hPa 2,4 l/m 5,6 km/h (1 Bft) S-SO 11,5 C 11,3 C 8,6 km/h (2 Bft)
12.12.2023 16:00 11,9 C 98 % 996,9 hPa 0,0 l/m 0,0 km/h (0 Bft) W-SW 11,6 C 11,9 C 1,3 km/h (1 Bft)
12.12.2023 17:00 12,3 C 95 % 996,8 hPa 1,8 l/m 9,7 km/h (2 Bft) W-SW 11,4 C 10,4 C 15,3 km/h (3 Bft)
12.12.2023 18:00 12,1 C 96 % 996,2 hPa 0,0 l/m 6,6 km/h (2 Bft) W-SW 11,4 C 11,8 C 10,4 km/h (2 Bft)
12.12.2023 19:00 12,6 C 88 % 995,9 hPa 0,0 l/m 11,7 km/h (2 Bft) W-SW 10,6 C 9,7 C 19,6 km/h (3 Bft)
12.12.2023 20:00 11,9 C 84 % 995,5 hPa 0,0 l/m 13,5 km/h (3 Bft) SW 9,2 C 8,2 C 21,5 km/h (4 Bft)
12.12.2023 21:00 11,8 C 83 % 995,6 hPa 0,0 l/m 15,9 km/h (3 Bft) W-SW 8,9 C 7,3 C 24,4 km/h (4 Bft)
12.12.2023 22:00 8,5 C 93 % 996,9 hPa 3,0 l/m 9,2 km/h (2 Bft) SO 7,4 C 5,9 C 15,3 km/h (3 Bft)
12.12.2023 23:00 8,1 C 96 % 996,7 hPa 0,3 l/m 3,6 km/h (1 Bft) S-SO 7,5 C 8,1 C 4,8 km/h (1 Bft)
13.12.2023 00:00 8,2 C 96 % 996,9 hPa 0,9 l/m 1,8 km/h (1 Bft) O-NO 7,6 C 8,2 C 4,3 km/h (1 Bft)
13.12.2023 01:00 9,5 C 96 % 996,3 hPa 0,6 l/m 5,4 km/h (1 Bft) S-SW 8,8 C 9,2 C 9,2 km/h (2 Bft)
13.12.2023 02:00 10,0 C 92 % 996,2 hPa 0,0 l/m 6,1 km/h (2 Bft) SW 8,8 C 9,3 C 9,7 km/h (2 Bft)
13.12.2023 03:00 9,7 C 91 % 995,9 hPa 0,0 l/m 1,1 km/h (1 Bft) S-SW 8,2 C 9,7 C 3,0 km/h (1 Bft)
13.12.2023 04:00 10,1 C 88 % 995,4 hPa 0,0 l/m 3,0 km/h (1 Bft) N-NO 8,1 C 10,1 C 5,4 km/h (1 Bft)
13.12.2023 05:00 9,1 C 94 % 995,3 hPa 0,9 l/m 1,3 km/h (1 Bft) N 8,1 C 9,1 C 3,0 km/h (1 Bft)
13.12.2023 06:00 8,5 C 97 % 995,0 hPa 0,0 l/m 1,3 km/h (1 Bft) S-SW 7,9 C 8,5 C 3,0 km/h (1 Bft)
13.12.2023 07:00 9,1 C 93 % 994,7 hPa 0,3 l/m 3,0 km/h (1 Bft) W-SW 8,1 C 9,1 C 7,9 km/h (2 Bft)
13.12.2023 08:00 9,4 C 91 % 994,5 hPa 0,6 l/m 6,6 km/h (2 Bft) W-SW 7,9 C 9,1 C 9,2 km/h (2 Bft)
13.12.2023 09:00 9,6 C 89 % 994,0 hPa 0,0 l/m 7,4 km/h (2 Bft) W 7,8 C 8,8 C 11,5 km/h (2 Bft)
13.12.2023 10:00 9,9 C 87 % 994,0 hPa 0,0 l/m 7,9 km/h (2 Bft) S-SW 7,7 C 8,8 C 12,3 km/h (3 Bft)
13.12.2023 11:00 10,3 C 83 % 994,0 hPa 0,0 l/m 12,2 km/h (2 Bft) SW 7,5 C 6,8 C 19,6 km/h (3 Bft)
13.12.2023 12:00 10,6 C 84 % 993,4 hPa 0,0 l/m 8,4 km/h (2 Bft) SW 7,9 C 9,2 C 13,5 km/h (3 Bft)
13.12.2023 13:00 10,0 C 83 % 992,8 hPa 0,0 l/m 6,6 km/h (2 Bft) S-SW 7,2 C 9,8 C 11,5 km/h (2 Bft)
13.12.2023 14:00 9,5 C 87 % 992,5 hPa 0,0 l/m 10,4 km/h (2 Bft) W-SW 7,4 C 6,8 C 16,0 km/h (3 Bft)
13.12.2023 15:00 8,9 C 90 % 992,8 hPa 0,0 l/m 5,6 km/h (1 Bft) SW 7,3 C 8,9 C 8,4 km/h (2 Bft)
13.12.2023 16:00 8,8 C 86 % 993,1 hPa 0,0 l/m 6,8 km/h (2 Bft) S 6,5 C 7,9 C 10,3 km/h (2 Bft)
13.12.2023 17:00 8,8 C 86 % 993,3 hPa 0,0 l/m 9,9 km/h (2 Bft) SW 6,5 C 6,3 C 16,0 km/h (3 Bft)
13.12.2023 18:00 7,9 C 92 % 994,3 hPa 1,2 l/m 8,6 km/h (2 Bft) W-SW 6,7 C 6,3 C 12,3 km/h (3 Bft)
13.12.2023 19:00 7,4 C 96 % 995,7 hPa 1,2 l/m 7,4 km/h (2 Bft) S-SW 6,8 C 5,7 C 10,4 km/h (2 Bft)
13.12.2023 20:00 7,3 C 97 % 996,4 hPa 0,0 l/m 1,1 km/h (1 Bft) W-SW 6,7 C 7,3 C 3,0 km/h (1 Bft)
13.12.2023 21:00 7,1 C 98 % 996,9 hPa 0,6 l/m 0,0 km/h (0 Bft) S-SW 6,7 C 7,1 C 0,0 km/h (0 Bft)
13.12.2023 22:00 6,9 C 98 % 997,7 hPa 1,5 l/m 2,3 km/h (1 Bft) S-SW 6,7 C 6,9 C 3,0 km/h (1 Bft)
13.12.2023 23:00 7,0 C 98 % 998,3 hPa 0,6 l/m 2,5 km/h (1 Bft) SW 6,7 C 7,0 C 3,6 km/h (1 Bft)
14.12.2023 00:00 6,9 C 98 % 999,1 hPa 0,0 l/m 2,3 km/h (1 Bft) S-SO 6,6 C 6,9 C 4,3 km/h (1 Bft)
14.12.2023 01:00 6,9 C 97 % 1000,1 hPa 0,0 l/m 0,0 km/h (0 Bft) N 6,5 C 6,9 C 0,0 km/h (0 Bft)
14.12.2023 02:00 6,9 C 98 % 1001,1 hPa 0,0 l/m 0,0 km/h (0 Bft) N 6,6 C 6,9 C 2,5 km/h (1 Bft)
14.12.2023 03:00 6,8 C 98 % 1002,2 hPa 0,6 l/m 1,3 km/h (1 Bft) S-SW 6,5 C 6,8 C 3,6 km/h (1 Bft)
14.12.2023 04:00 6,6 C 98 % 1002,9 hPa 0,0 l/m 1,3 km/h (1 Bft) N 6,4 C 6,6 C 1,8 km/h (1 Bft)
14.12.2023 05:00 6,6 C 99 % 1004,2 hPa 0,0 l/m 0,0 km/h (0 Bft) N 6,3 C 6,6 C 0,0 km/h (0 Bft)
14.12.2023 06:00 6,4 C 99 % 1005,2 hPa 0,0 l/m 0,0 km/h (0 Bft) N 6,2 C 6,4 C 1,3 km/h (1 Bft)
14.12.2023 07:00 6,4 C 99 % 1006,3 hPa 0,9 l/m 0,0 km/h (0 Bft) N 6,3 C 6,4 C 1,3 km/h (1 Bft)
14.12.2023 08:00 6,4 C 99 % 1007,5 hPa 0,0 l/m 0,0 km/h (0 Bft) N 6,2 C 6,4 C 0,0 km/h (0 Bft)
14.12.2023 09:00 6,7 C 99 % 1008,5 hPa 0,6 l/m 0,0 km/h (0 Bft) S-SO 6,5 C 6,7 C 0,0 km/h (0 Bft)
14.12.2023 10:00 6,9 C 99 % 1009,5 hPa 0,0 l/m 1,8 km/h (1 Bft) W-SW 6,7 C 6,9 C 3,6 km/h (1 Bft)
14.12.2023 11:00 7,2 C 97 % 1010,2 hPa 0,3 l/m 4,3 km/h (1 Bft) W-SW 6,8 C 7,2 C 7,9 km/h (2 Bft)
14.12.2023 12:00 7,4 C 98 % 1010,6 hPa 0,6 l/m 2,5 km/h (1 Bft) SW 7,2 C 7,4 C 3,6 km/h (1 Bft)
14.12.2023 13:00 8,0 C 98 % 1011,0 hPa 0,0 l/m 3,6 km/h (1 Bft) SW 7,6 C 8,0 C 6,1 km/h (2 Bft)
14.12.2023 14:00 8,1 C 96 % 1011,1 hPa 0,0 l/m 2,3 km/h (1 Bft) S-SW 7,4 C 8,1 C 3,6 km/h (1 Bft)
14.12.2023 15:00 8,3 C 94 % 1011,8 hPa 0,0 l/m 2,5 km/h (1 Bft) W-SW 7,4 C 8,3 C 3,6 km/h (1 Bft)
14.12.2023 16:00 7,0 C 95 % 1012,8 hPa 3,3 l/m 1,8 km/h (1 Bft) N-NO 6,3 C 7,0 C 6,1 km/h (2 Bft)
14.12.2023 17:00 6,6 C 98 % 1013,9 hPa 0,3 l/m 0,6 km/h (0 Bft) N 6,2 C 6,6 C 2,5 km/h (1 Bft)
14.12.2023 18:00 6,4 C 99 % 1014,9 hPa 0,0 l/m 0,0 km/h (0 Bft) N 6,2 C 6,4 C 1,3 km/h (1 Bft)
14.12.2023 19:00 6,4 C 99 % 1015,9 hPa 0,0 l/m 1,3 km/h (1 Bft) N-NO 6,3 C 6,4 C 1,8 km/h (1 Bft)
14.12.2023 20:00 6,3 C 99 % 1017,0 hPa 0,6 l/m 0,0 km/h (0 Bft) N 6,2 C 6,3 C 0,0 km/h (0 Bft)
14.12.2023 21:00 5,8 C 98 % 1018,3 hPa 0,0 l/m 0,6 km/h (0 Bft) N-NO 5,5 C 5,8 C 1,8 km/h (1 Bft)
14.12.2023 22:00 5,6 C 91 % 1019,5 hPa 0,0 l/m 2,5 km/h (1 Bft) N 4,2 C 5,6 C 6,1 km/h (2 Bft)
14.12.2023 23:00 4,9 C 94 % 1020,3 hPa 0,0 l/m 0,0 km/h (0 Bft) N 3,9 C 4,9 C 0,0 km/h (0 Bft)
15.12.2023 00:00 4,7 C 97 % 1021,3 hPa 0,0 l/m 0,0 km/h (0 Bft) N 4,1 C 4,7 C 0,0 km/h (0 Bft)
15.12.2023 01:00 4,6 C 97 % 1021,9 hPa 0,0 l/m 0,0 km/h (0 Bft) N 4,1 C 4,6 C 0,0 km/h (0 Bft)
15.12.2023 02:00 4,3 C 98 % 1022,7 hPa 0,0 l/m 0,0 km/h (0 Bft) N 4,0 C 4,3 C 0,0 km/h (0 Bft)
15.12.2023 03:00 3,9 C 99 % 1023,3 hPa 0,0 l/m 0,0 km/h (0 Bft) N 3,7 C 3,9 C 0,0 km/h (0 Bft)
15.12.2023 04:00 3,9 C 99 % 1023,9 hPa 0,0 l/m 0,0 km/h (0 Bft) N 3,8 C 3,9 C 0,0 km/h (0 Bft)
15.12.2023 05:00 4,1 C 99 % 1024,4 hPa 0,0 l/m 0,0 km/h (0 Bft) N 3,9 C 4,1 C 1,3 km/h (1 Bft)
15.12.2023 06:00 4,1 C 99 % 1025,1 hPa 0,3 l/m 0,0 km/h (0 Bft) N 4,0 C 4,1 C 0,0 km/h (0 Bft)
15.12.2023 07:00 4,1 C 99 % 1026,0 hPa 0,0 l/m 0,0 km/h (0 Bft) N 4,0 C 4,1 C 0,0 km/h (0 Bft)
15.12.2023 08:00 4,0 C 99 % 1026,8 hPa 0,0 l/m 0,0 km/h (0 Bft) N 3,8 C 4,0 C 0,0 km/h (0 Bft)
15.12.2023 09:00 4,7 C 99 % 1027,6 hPa 0,0 l/m 0,0 km/h (0 Bft) N 4,5 C 4,7 C 0,0 km/h (0 Bft)
15.12.2023 10:00 5,3 C 98 % 1027,9 hPa 0,0 l/m 0,0 km/h (0 Bft) N 5,0 C 5,3 C 0,0 km/h (0 Bft)
15.12.2023 11:00 6,3 C 92 % 1028,1 hPa 0,0 l/m 0,6 km/h (0 Bft) O 5,0 C 6,3 C 1,3 km/h (1 Bft)
15.12.2023 12:00 7,4 C 86 % 1027,9 hPa 0,0 l/m 1,1 km/h (1 Bft) SO 5,3 C 7,4 C 2,5 km/h (1 Bft)
15.12.2023 13:00 8,1 C 83 % 1027,3 hPa 0,0 l/m 0,0 km/h (0 Bft) N 5,4 C 8,1 C 1,3 km/h (1 Bft)
15.12.2023 14:00 8,0 C 83 % 1027,1 hPa 0,0 l/m 0,0 km/h (0 Bft) N 5,3 C 8,0 C 0,0 km/h (0 Bft)
15.12.2023 15:00 7,6 C 84 % 1027,8 hPa 0,0 l/m 0,0 km/h (0 Bft) N 5,0 C 7,6 C 1,3 km/h (1 Bft)
15.12.2023 16:00 6,9 C 88 % 1028,0 hPa 0,0 l/m 0,0 km/h (0 Bft) N 5,0 C 6,9 C 0,0 km/h (0 Bft)
15.12.2023 17:00 6,2 C 94 % 1028,7 hPa 0,0 l/m 0,0 km/h (0 Bft) O-SO 5,3 C 6,2 C 0,0 km/h (0 Bft)
15.12.2023 18:00 5,7 C 96 % 1028,6 hPa 0,0 l/m 0,6 km/h (0 Bft) N 5,1 C 5,7 C 1,8 km/h (1 Bft)
15.12.2023 19:00 5,5 C 96 % 1028,9 hPa 0,0 l/m 0,0 km/h (0 Bft) SO 4,9 C 5,5 C 0,0 km/h (0 Bft)
15.12.2023 20:00 5,3 C 97 % 1029,4 hPa 0,0 l/m 1,3 km/h (1 Bft) N 4,9 C 5,3 C 1,8 km/h (1 Bft)
15.12.2023 21:00 5,4 C 96 % 1029,9 hPa 0,0 l/m 0,0 km/h (0 Bft) N 4,8 C 5,4 C 1,3 km/h (1 Bft)
15.12.2023 22:00 4,8 C 97 % 1030,2 hPa 0,0 l/m 0,6 km/h (0 Bft) SO 4,2 C 4,8 C 1,8 km/h (1 Bft)
15.12.2023 23:00 4,4 C 97 % 1031,1 hPa 0,0 l/m 0,0 km/h (0 Bft) N 4,0 C 4,4 C 0,0 km/h (0 Bft)
16.12.2023 00:00 4,7 C 96 % 1031,4 hPa 0,0 l/m 1,3 km/h (1 Bft) SO 4,1 C 4,7 C 1,8 km/h (1 Bft)
16.12.2023 01:00 4,6 C 96 % 1031,6 hPa 0,0 l/m 0,0 km/h (0 Bft) SO 3,9 C 4,6 C 0,0 km/h (0 Bft)
16.12.2023 02:00 4,1 C 97 % 1032,3 hPa 0,0 l/m 0,6 km/h (0 Bft) SO 3,6 C 4,1 C 2,5 km/h (1 Bft)
16.12.2023 03:00 4,4 C 95 % 1032,6 hPa 0,0 l/m 1,3 km/h (1 Bft) N 3,6 C 4,4 C 3,0 km/h (1 Bft)
16.12.2023 04:00 4,4 C 96 % 1033,1 hPa 0,0 l/m 0,0 km/h (0 Bft) N 3,7 C 4,4 C 0,0 km/h (0 Bft)
16.12.2023 05:00 4,0 C 96 % 1033,6 hPa 0,0 l/m 0,0 km/h (0 Bft) N 3,4 C 4,0 C 1,3 km/h (1 Bft)
16.12.2023 06:00 3,8 C 97 % 1033,8 hPa 0,0 l/m 0,0 km/h (0 Bft) N 3,3 C 3,8 C 0,0 km/h (0 Bft)
16.12.2023 07:00 3,0 C 98 % 1033,9 hPa 0,0 l/m 0,6 km/h (0 Bft) SO 2,7 C 3,0 C 1,8 km/h (1 Bft)
16.12.2023 08:00 1,5 C 98 % 1034,4 hPa 0,0 l/m 0,0 km/h (0 Bft) N 1,3 C 1,5 C 1,3 km/h (1 Bft)
16.12.2023 09:00 3,3 C 96 % 1034,8 hPa 0,0 l/m 1,3 km/h (1 Bft) O-SO 2,8 C 3,3 C 1,8 km/h (1 Bft)
16.12.2023 10:00 5,1 C 90 % 1035,0 hPa 0,0 l/m 2,3 km/h (1 Bft) SO 3,5 C 5,1 C 4,8 km/h (1 Bft)
16.12.2023 11:00 6,2 C 86 % 1035,0 hPa 0,0 l/m 1,8 km/h (1 Bft) O-NO 4,0 C 6,2 C 3,0 km/h (1 Bft)
16.12.2023 12:00 7,7 C 82 % 1034,5 hPa 0,0 l/m 1,8 km/h (1 Bft) W 4,7 C 7,7 C 3,6 km/h (1 Bft)
16.12.2023 13:00 9,1 C 80 % 1032,6 hPa 0,0 l/m 2,5 km/h (1 Bft) S-SW 5,8 C 9,1 C 3,6 km/h (1 Bft)
16.12.2023 14:00 9,1 C 79 % 1030,6 hPa 0,0 l/m 1,8 km/h (1 Bft) SO 5,6 C 9,1 C 3,0 km/h (1 Bft)
16.12.2023 15:00 8,6 C 80 % 1029,9 hPa 0,0 l/m 1,3 km/h (1 Bft) SO 5,2 C 8,6 C 3,0 km/h (1 Bft)
16.12.2023 16:00 6,1 C 89 % 1030,3 hPa 0,0 l/m 0,6 km/h (0 Bft) N 4,3 C 6,1 C 3,0 km/h (1 Bft)
16.12.2023 17:00 4,3 C 93 % 1030,4 hPa 0,0 l/m 0,0 km/h (0 Bft) O-SO 3,3 C 4,3 C 0,0 km/h (0 Bft)
16.12.2023 18:00 2,9 C 96 % 1030,3 hPa 0,0 l/m 1,8 km/h (1 Bft) N 2,4 C 2,9 C 3,0 km/h (1 Bft)
16.12.2023 19:00 2,1 C 97 % 1030,9 hPa 0,0 l/m 0,0 km/h (0 Bft) N 1,7 C 2,1 C 1,3 km/h (1 Bft)
16.12.2023 20:00 1,5 C 98 % 1031,4 hPa 0,0 l/m 0,0 km/h (0 Bft) N 1,3 C 1,5 C 1,3 km/h (1 Bft)
16.12.2023 21:00 1,0 C 98 % 1031,5 hPa 0,0 l/m 0,0 km/h (0 Bft) N 0,7 C 1,0 C 2,5 km/h (1 Bft)
16.12.2023 22:00 0,7 C 98 % 1031,7 hPa 0,0 l/m 2,5 km/h (1 Bft) SO 0,4 C 0,7 C 3,6 km/h (1 Bft)
16.12.2023 23:00 0,4 C 98 % 1031,6 hPa 0,0 l/m 1,3 km/h (1 Bft) O-SO 0,1 C 0,4 C 4,8 km/h (1 Bft)
17.12.2023 00:00 -0,0 C 98 % 1031,6 hPa 0,0 l/m 1,3 km/h (1 Bft) O -0,3 C -0,0 C 1,8 km/h (1 Bft)
17.12.2023 01:00 -0,6 C 99 % 1031,6 hPa 0,0 l/m 0,0 km/h (0 Bft) W -0,9 C -0,6 C 0,0 km/h (0 Bft)
17.12.2023 02:00 -1,3 C 99 % 1032,2 hPa 0,0 l/m 0,6 km/h (0 Bft) N -1,4 C -1,3 C 1,8 km/h (1 Bft)
17.12.2023 03:00 -0,8 C 99 % 1032,9 hPa 0,0 l/m 0,0 km/h (0 Bft) N -0,9 C -0,8 C 0,0 km/h (0 Bft)
17.12.2023 04:00 -1,0 C 99 % 1032,9 hPa 0,0 l/m 0,0 km/h (0 Bft) N -1,2 C -1,0 C 0,0 km/h (0 Bft)
17.12.2023 05:00 -1,8 C 99 % 1032,7 hPa 0,0 l/m 0,0 km/h (0 Bft) N -1,9 C -1,8 C 0,0 km/h (0 Bft)
17.12.2023 06:00 -1,8 C 99 % 1032,9 hPa 0,0 l/m 0,0 km/h (0 Bft) W -1,9 C -1,8 C 0,0 km/h (0 Bft)
17.12.2023 07:00 -1,6 C 99 % 1033,1 hPa 0,0 l/m 0,6 km/h (0 Bft) N -1,8 C -1,6 C 2,5 km/h (1 Bft)
17.12.2023 08:00 -1,2 C 99 % 1033,2 hPa 0,0 l/m 0,0 km/h (0 Bft) N -1,3 C -1,2 C 0,0 km/h (0 Bft)
17.12.2023 09:00 -1,5 C 99 % 1033,1 hPa 0,0 l/m 0,0 km/h (0 Bft) N -1,6 C -1,5 C 0,0 km/h (0 Bft)
17.12.2023 10:00 -0,9 C 99 % 1032,6 hPa 0,0 l/m 0,0 km/h (0 Bft) W-NW -1,0 C -0,9 C 0,0 km/h (0 Bft)
17.12.2023 11:00 -0,3 C 99 % 1031,9 hPa 0,0 l/m 0,6 km/h (0 Bft) N -0,4 C -0,3 C 1,3 km/h (1 Bft)
17.12.2023 12:00 0,6 C 99 % 1031,2 hPa 0,0 l/m 0,6 km/h (0 Bft) W-NW 0,5 C 0,6 C 1,3 km/h (1 Bft)
17.12.2023 13:00 1,1 C 99 % 1030,8 hPa 0,0 l/m 0,0 km/h (0 Bft) N 1,0 C 1,1 C 1,3 km/h (1 Bft)
17.12.2023 14:00 1,7 C 99 % 1029,9 hPa 0,0 l/m 0,0 km/h (0 Bft) N 1,6 C 1,7 C 0,0 km/h (0 Bft)
17.12.2023 15:00 2,1 C 99 % 1029,4 hPa 0,0 l/m 0,6 km/h (0 Bft) W 1,9 C 2,1 C 1,8 km/h (1 Bft)
17.12.2023 16:00 0,9 C 99 % 1029,4 hPa 0,0 l/m 0,0 km/h (0 Bft) N 0,8 C 0,9 C 0,0 km/h (0 Bft)
17.12.2023 17:00 0,3 C 99 % 1029,6 hPa 0,0 l/m 0,0 km/h (0 Bft) W 0,2 C 0,3 C 1,3 km/h (1 Bft)
17.12.2023 18:00 0,8 C 99 % 1029,8 hPa 0,0 l/m 0,6 km/h (0 Bft) N 0,6 C 0,8 C 2,5 km/h (1 Bft)
17.12.2023 19:00 0,4 C 99 % 1029,8 hPa 0,0 l/m 0,0 km/h (0 Bft) N 0,3 C 0,4 C 0,0 km/h (0 Bft)
17.12.2023 20:00 -0,2 C 99 % 1029,9 hPa 0,0 l/m 0,0 km/h (0 Bft) O-SO -0,3 C -0,2 C 0,0 km/h (0 Bft)
17.12.2023 21:00 -0,4 C 99 % 1030,0 hPa 0,0 l/m 0,6 km/h (0 Bft) N -0,5 C -0,4 C 1,3 km/h (1 Bft)
17.12.2023 22:00 -0,6 C 99 % 1029,6 hPa 0,0 l/m 0,6 km/h (0 Bft) O-NO -0,7 C -0,6 C 1,8 km/h (1 Bft)
17.12.2023 23:00 -0,5 C 99 % 1029,6 hPa 0,0 l/m 0,0 km/h (0 Bft) N -0,6 C -0,5 C 0,0 km/h (0 Bft)
Min-Datum _ 17.12.23 16.12.23 13.12.23 - 11.12.23 - 17.12.23 17.12.23 12.12.23
_ Min-Zeit 05:13 15:13 14:13 - 11:33 - 05:13 05:13 01:39
Minimum _ -1,9 C 77 % 992,5 hPa - 0,0 km/h (0 Bft) - -2,0 C -1,9 C 0,0 km/h (0 Bft)
Max-Datum _ 12.12.23 12.12.23 16.12.23 12.12.23 12.12.23 - 12.12.23 12.12.23 12.12.23
_ Max-Zeit 13:39 10:39 09:43 10:09 21:13 - 14:39 11:39 21:13
Maximum _ 14,0 C 99 % 1035,1 hPa 4,2 l/m 22,0 km/h
W-SW (4 Bft)
- 11,8 C 12,4 C 35,6 km/h
W-SW (5 Bft)
Durchschnitt _ 6,6 C 94 % 1014,3 hPa #33,9 l/m 2,9 km/h (1 Bft) W-SW 5,6 C 6,2 C 4,9 km/h (1 Bft)
www.sexauwetter.de